createdAt,value
2022-12-26T00:00:54.897Z,53.90
2022-12-26T00:03:22.300Z,54.13
2022-12-26T00:05:49.459Z,47.92
2022-12-26T00:08:16.647Z,42.35
2022-12-26T00:10:43.554Z,44.05
2022-12-26T00:13:38.169Z,44.28
2022-12-26T00:15:57.568Z,38.05
2022-12-26T00:18:24.494Z,39.80
2022-12-26T00:20:51.508Z,32.97
2022-12-26T00:23:18.404Z,31.65
2022-12-26T00:25:45.300Z,35.95
2022-12-26T00:28:12.471Z,32.17
2022-12-26T00:30:39.411Z,30.92
2022-12-26T00:33:06.508Z,31.35
2022-12-26T00:35:33.460Z,32.75
2022-12-26T00:38:00.728Z,37.75
2022-12-26T00:40:28.009Z,32.15
2022-12-26T00:42:54.893Z,39.08
2022-12-26T00:45:22.165Z,37.72
2022-12-26T00:47:49.064Z,36.78
2022-12-26T00:50:16.581Z,40.22
2022-12-26T00:52:43.684Z,36.90
2022-12-26T00:55:10.876Z,40.75
2022-12-26T00:57:37.878Z,41.42
2022-12-26T01:00:05.869Z,43.42
2022-12-26T01:02:39.051Z,38.83
2022-12-26T01:05:11.210Z,42.53
2022-12-26T01:08:20.225Z,38.78
2022-12-26T01:10:28.213Z,45.77
2022-12-26T01:12:55.169Z,44.23
2022-12-26T01:15:22.219Z,48.33
2022-12-26T01:17:49.116Z,49.90
2022-12-26T01:20:16.894Z,44.30
2022-12-26T01:22:43.881Z,43.05
2022-12-26T01:25:12.203Z,49.60
2022-12-26T01:27:39.653Z,47.47
2022-12-26T01:30:07.511Z,50.85
2022-12-26T01:32:34.414Z,44.50
2022-12-26T01:35:01.291Z,44.85
2022-12-26T01:37:28.339Z,44.35
2022-12-26T01:39:55.571Z,50.67
2022-12-26T01:42:25.305Z,44.30
2022-12-26T01:45:02.568Z,44.55
2022-12-26T01:48:08.310Z,42.60
2022-12-26T01:51:02.974Z,45.78
2022-12-26T01:53:34.514Z,44.30
2022-12-26T01:56:06.865Z,46.40
2022-12-26T01:58:39.734Z,43.00
2022-12-26T02:01:08.648Z,41.60
2022-12-26T02:04:00.053Z,40.97
2022-12-26T02:06:27.718Z,47.92
2022-12-26T02:08:55.026Z,48.58
2022-12-26T02:11:27.749Z,49.63
2022-12-26T02:13:55.016Z,54.28
2022-12-26T02:16:22.177Z,51.70
2022-12-26T02:18:49.114Z,55.55
2022-12-26T02:22:18.359Z,56.58
2022-12-26T02:25:07.706Z,62.58
2022-12-26T02:30:41.468Z,63.72
2022-12-26T02:33:47.705Z,72.07
2022-12-26T02:36:22.585Z,80.18
2022-12-26T02:38:52.625Z,86.30
2022-12-26T02:41:49.283Z,87.82
2022-12-26T02:44:39.848Z,81.50
2022-12-26T02:47:09.587Z,75.78
2022-12-26T02:50:02.629Z,78.28
2022-12-26T02:53:20.751Z,66.30
2022-12-26T02:56:11.703Z,59.22
2022-12-26T02:59:03.324Z,56.58
2022-12-26T03:01:58.339Z,53.63
2022-12-26T03:04:49.241Z,52.63
2022-12-26T03:07:40.821Z,51.72
2022-12-26T03:10:43.058Z,47.60
2022-12-26T03:13:17.105Z,51.75
2022-12-26T03:16:20.749Z,47.53
2022-12-26T03:18:57.813Z,47.65
2022-12-26T03:21:31.618Z,53.80
2022-12-26T03:23:58.636Z,50.25
2022-12-26T03:26:40.991Z,47.75
2022-12-26T03:29:36.511Z,48.70
2022-12-26T03:32:07.152Z,49.35
2022-12-26T03:34:37.616Z,52.25
2022-12-26T03:37:16.756Z,45.80
2022-12-26T03:40:02.277Z,47.92
2022-12-26T03:42:55.463Z,38.40
2022-12-26T03:46:24.346Z,41.95
2022-12-26T03:49:26.233Z,35.97
2022-12-26T03:52:28.596Z,40.80
2022-12-26T03:55:39.236Z,38.55
2022-12-26T03:58:51.029Z,39.22
2022-12-26T04:01:44.203Z,37.67
2022-12-26T04:04:33.787Z,36.45
2022-12-26T04:10:22.871Z,29.27
2022-12-26T04:13:10.569Z,33.35
2022-12-26T04:16:15.047Z,35.22
2022-12-26T04:19:26.367Z,25.95
2022-12-26T04:22:55.655Z,25.15
2022-12-26T04:28:40.631Z,24.50
2022-12-26T04:31:33.169Z,26.48
2022-12-26T04:34:23.247Z,26.23
2022-12-26T04:37:15.238Z,28.05
2022-12-26T04:40:06.885Z,28.92
2022-12-26T04:42:53.924Z,35.20
2022-12-26T04:45:22.774Z,36.03
2022-12-26T04:48:09.780Z,34.25
2022-12-26T04:50:36.934Z,29.27
2022-12-26T04:53:04.010Z,29.40
2022-12-26T04:55:33.394Z,30.33
2022-12-26T04:58:00.612Z,31.75
2022-12-26T05:00:28.888Z,31.08
2022-12-26T05:03:19.092Z,29.67
2022-12-26T05:06:08.466Z,29.55
2022-12-26T05:09:05.019Z,28.65
2022-12-26T05:11:34.349Z,31.50
2022-12-26T05:14:01.665Z,33.20
2022-12-26T05:16:48.355Z,30.27
2022-12-26T05:19:36.582Z,29.10
2022-12-26T05:22:23.868Z,31.52
2022-12-26T05:25:10.948Z,35.63
2022-12-26T05:28:01.046Z,35.25
2022-12-26T05:30:28.865Z,33.97
2022-12-26T05:33:14.936Z,35.95
2022-12-26T05:35:42.471Z,41.20
2022-12-26T05:38:11.055Z,40.60
2022-12-26T05:40:38.360Z,41.53
2022-12-26T05:43:05.249Z,39.20
2022-12-26T05:45:32.662Z,40.72
2022-12-26T05:48:00.728Z,42.95
2022-12-26T05:50:28.879Z,47.13
2022-12-26T05:52:59.793Z,48.10
2022-12-26T05:55:27.056Z,46.63
2022-12-26T05:57:54.271Z,46.47
2022-12-26T06:00:21.401Z,47.47
2022-12-26T06:02:48.885Z,44.60
2022-12-26T06:05:16.160Z,40.50
2022-12-26T06:07:45.031Z,45.92
2022-12-26T06:12:41.013Z,44.23
2022-12-26T06:15:08.489Z,45.53
2022-12-26T06:17:35.751Z,42.53
2022-12-26T06:20:02.689Z,42.55
2022-12-26T06:22:30.442Z,40.08
2022-12-26T06:24:57.699Z,42.42
2022-12-26T06:27:24.783Z,44.78
2022-12-26T06:29:51.793Z,48.67
2022-12-26T06:32:18.753Z,46.40
2022-12-26T06:34:45.671Z,47.10
2022-12-26T06:37:12.612Z,42.03
2022-12-26T06:39:39.604Z,43.88
2022-12-26T06:42:06.777Z,44.70
2022-12-26T06:44:33.754Z,46.55
2022-12-26T06:47:00.905Z,45.10
2022-12-26T06:49:32.731Z,46.05
2022-12-26T06:52:00.448Z,47.67
2022-12-26T06:54:27.464Z,45.28
2022-12-26T06:56:54.350Z,44.03
2022-12-26T06:59:21.605Z,44.50
2022-12-26T07:01:49.254Z,49.58
2022-12-26T07:04:16.527Z,46.83
2022-12-26T07:06:43.590Z,52.58
2022-12-26T07:09:17.266Z,44.65
2022-12-26T07:11:47.294Z,50.38
2022-12-26T07:14:14.850Z,46.70
2022-12-26T07:16:45.318Z,46.40
2022-12-26T07:19:13.957Z,51.65
2022-12-26T07:21:41.512Z,42.25
2022-12-26T07:24:15.684Z,45.83
2022-12-26T07:26:43.521Z,47.45
2022-12-26T07:29:12.025Z,45.97
2022-12-26T07:31:40.264Z,52.83
2022-12-26T07:34:07.815Z,47.47
2022-12-26T07:36:35.031Z,49.50
2022-12-26T07:39:02.040Z,56.92
2022-12-26T07:41:49.181Z,45.65
2022-12-26T07:44:16.420Z,48.00
2022-12-26T07:46:43.940Z,45.97
2022-12-26T07:49:12.390Z,47.58
2022-12-26T07:51:39.689Z,47.05
2022-12-26T07:54:11.083Z,45.72
2022-12-26T07:56:40.309Z,46.30
2022-12-26T07:59:08.390Z,48.50
2022-12-26T08:01:35.682Z,43.42
2022-12-26T08:04:02.860Z,47.30
2022-12-26T08:06:30.013Z,43.35
2022-12-26T08:08:58.447Z,38.85
2022-12-26T08:11:25.999Z,39.50
2022-12-26T08:13:53.179Z,40.67
2022-12-26T08:16:20.872Z,35.92
2022-12-26T08:18:47.937Z,40.63
2022-12-26T08:21:15.543Z,45.00
2022-12-26T08:23:42.579Z,35.60
2022-12-26T08:26:13.072Z,33.67
2022-12-26T08:28:42.169Z,35.80
2022-12-26T08:31:10.889Z,42.85
2022-12-26T08:33:37.986Z,37.28
2022-12-26T08:36:10.951Z,38.55
2022-12-26T08:38:39.503Z,39.58
2022-12-26T08:41:06.783Z,35.92
2022-12-26T08:44:03.527Z,33.13
2022-12-26T08:46:22.484Z,37.67
2022-12-26T08:48:51.088Z,36.65
2022-12-26T08:51:23.789Z,37.22
2022-12-26T08:53:52.464Z,67.75
2022-12-26T08:56:22.255Z,66.35
2022-12-26T08:58:49.720Z,65.50
2022-12-26T09:01:23.185Z,87.78
2022-12-26T09:03:57.999Z,64.97
2022-12-26T09:06:26.041Z,74.97
2022-12-26T09:08:53.527Z,71.85
2022-12-26T09:11:28.780Z,58.92
2022-12-26T09:13:58.510Z,61.70
2022-12-26T09:19:02.205Z,62.40
2022-12-26T09:24:02.786Z,59.55
2022-12-26T09:26:30.351Z,51.50
2022-12-26T09:28:58.016Z,55.05
2022-12-26T09:31:28.102Z,57.42
2022-12-26T09:33:55.850Z,49.63
2022-12-26T09:36:25.886Z,49.83
2022-12-26T09:38:55.173Z,40.95
2022-12-26T09:44:16.714Z,45.25
2022-12-26T09:46:56.043Z,45.40
2022-12-26T09:49:30.534Z,42.25
2022-12-26T09:52:01.829Z,39.88
2022-12-26T09:54:41.114Z,40.88
2022-12-26T09:57:16.581Z,41.08
2022-12-26T09:59:49.973Z,39.45
2022-12-26T10:02:24.008Z,42.63
2022-12-26T10:04:53.921Z,43.03
2022-12-26T10:07:54.831Z,43.30
2022-12-26T10:10:24.933Z,43.30
2022-12-26T10:13:11.649Z,38.25
2022-12-26T10:15:44.627Z,44.38
2022-12-26T10:18:20.726Z,40.15
2022-12-26T10:21:06.035Z,36.65
2022-12-26T10:23:41.041Z,32.40
2022-12-26T10:26:18.171Z,33.25
2022-12-26T10:29:08.452Z,35.90
2022-12-26T10:31:45.091Z,35.97
2022-12-26T10:34:20.626Z,33.38
2022-12-26T10:36:51.365Z,35.78
2022-12-26T10:39:22.241Z,25.40
2022-12-26T10:41:56.863Z,26.58
2022-12-26T10:44:27.844Z,23.10
2022-12-26T10:47:07.901Z,14.38
2022-12-26T10:49:36.163Z,21.65
2022-12-26T10:52:03.898Z,28.73
2022-12-26T10:54:31.576Z,33.38
2022-12-26T10:56:59.338Z,26.92
2022-12-26T11:00:03.101Z,26.27
2022-12-26T11:02:32.812Z,29.80
2022-12-26T11:05:16.000Z,28.80
2022-12-26T11:08:07.649Z,23.25
2022-12-26T11:10:35.037Z,20.95
2022-12-26T11:13:07.450Z,22.08
2022-12-26T11:15:49.920Z,22.67
2022-12-26T11:18:54.295Z,20.48
2022-12-26T11:21:25.846Z,23.23
2022-12-26T11:24:08.607Z,25.17
2022-12-26T11:26:37.197Z,23.55
2022-12-26T11:29:10.550Z,20.67
2022-12-26T11:31:39.626Z,22.80
2022-12-26T11:34:13.929Z,20.85
2022-12-26T11:36:47.581Z,23.40
2022-12-26T11:39:31.853Z,22.20
2022-12-26T11:41:59.143Z,24.83
2022-12-26T11:44:33.272Z,26.40
2022-12-26T11:47:01.881Z,22.58
2022-12-26T11:49:36.409Z,20.10
2022-12-26T11:52:41.907Z,19.48
2022-12-26T11:55:27.301Z,20.10
2022-12-26T11:58:06.709Z,23.67
2022-12-26T12:00:42.166Z,17.63
2022-12-26T12:03:26.553Z,21.35
2022-12-26T12:06:27.155Z,22.67
2022-12-26T12:09:15.847Z,21.45
2022-12-26T12:12:16.997Z,20.85
2022-12-26T12:15:22.931Z,25.08
2022-12-26T12:18:11.463Z,22.98
2022-12-26T12:20:56.964Z,20.25
2022-12-26T12:23:23.914Z,26.10
2022-12-26T12:26:23.107Z,22.50
2022-12-26T12:29:05.009Z,19.40
2022-12-26T12:31:41.095Z,19.58
2022-12-26T12:34:34.577Z,22.27
2022-12-26T12:37:25.352Z,20.85
2022-12-26T12:39:58.530Z,18.77
2022-12-26T12:42:45.506Z,20.38
2022-12-26T12:45:18.431Z,25.42
2022-12-26T12:48:14.579Z,17.42
2022-12-26T12:51:14.375Z,16.90
2022-12-26T12:56:28.239Z,17.45
2022-12-26T12:58:55.492Z,15.52
2022-12-26T13:01:28.309Z,19.38
2022-12-26T13:04:09.440Z,15.32
2022-12-26T13:06:43.891Z,15.63
2022-12-26T13:09:17.353Z,20.13
2022-12-26T13:11:56.661Z,19.30
2022-12-26T13:17:00.541Z,17.27
2022-12-26T13:19:41.897Z,19.30
2022-12-26T13:22:21.313Z,19.48
2022-12-26T13:24:56.922Z,21.73
2022-12-26T13:27:38.196Z,19.98
2022-12-26T13:30:17.003Z,16.65
2022-12-26T13:32:46.725Z,16.65
2022-12-26T13:35:53.667Z,18.63
2022-12-26T13:38:22.449Z,15.60
2022-12-26T13:41:22.819Z,11.57
2022-12-26T13:44:06.663Z,19.85
2022-12-26T13:46:36.608Z,18.52
2022-12-26T13:49:04.167Z,15.35
2022-12-26T13:51:42.960Z,14.50
2022-12-26T13:54:12.913Z,12.87
2022-12-26T13:56:45.675Z,11.57
2022-12-26T13:59:13.089Z,14.07
2022-12-26T14:02:01.411Z,15.13
2022-12-26T14:04:52.723Z,10.63
2022-12-26T14:07:28.638Z,9.65
2022-12-26T14:10:04.385Z,18.35
2022-12-26T14:12:43.485Z,14.38
2022-12-26T14:15:31.772Z,13.18
2022-12-26T14:18:29.928Z,13.18
2022-12-26T14:24:18.418Z,16.33
2022-12-26T14:26:49.173Z,11.80
2022-12-26T14:29:19.573Z,12.25
2022-12-26T14:32:32.117Z,13.90
2022-12-26T14:35:23.692Z,12.98
2022-12-26T14:38:28.267Z,13.90
2022-12-26T14:41:34.172Z,10.80
2022-12-26T14:44:15.849Z,14.57
2022-12-26T14:46:42.906Z,15.13
2022-12-26T14:49:37.311Z,15.98
2022-12-26T14:52:23.311Z,16.45
2022-12-26T14:54:54.215Z,23.00
2022-12-26T14:57:47.577Z,21.02
2022-12-26T15:00:24.190Z,15.65
2022-12-26T15:03:01.738Z,16.60
2022-12-26T15:05:38.470Z,17.00
2022-12-26T15:08:14.256Z,15.30
2022-12-26T15:10:50.421Z,15.18
2022-12-26T15:13:36.228Z,15.82
2022-12-26T15:16:18.687Z,16.73
2022-12-26T15:19:07.143Z,17.38
2022-12-26T15:21:43.006Z,18.38
2022-12-26T15:25:16.893Z,15.20
2022-12-26T15:28:15.252Z,18.60
2022-12-26T15:31:20.560Z,25.13
2022-12-26T15:34:03.028Z,18.45
2022-12-26T15:36:41.077Z,23.42
2022-12-26T15:39:21.997Z,19.40
2022-12-26T15:42:22.908Z,24.15
2022-12-26T15:45:08.645Z,21.08
2022-12-26T15:47:49.025Z,21.02
2022-12-26T15:50:21.920Z,18.67
2022-12-26T15:53:09.972Z,21.08
2022-12-26T15:55:46.425Z,18.13
2022-12-26T15:58:51.060Z,25.25
2022-12-26T16:01:39.234Z,22.13
2022-12-26T16:04:13.705Z,19.98
2022-12-26T16:06:56.285Z,18.88
2022-12-26T16:09:32.389Z,21.75
2022-12-26T16:12:00.841Z,18.55
2022-12-26T16:14:27.837Z,19.33
2022-12-26T16:16:55.502Z,22.20
2022-12-26T16:19:27.749Z,19.17
2022-12-26T16:22:21.427Z,20.27
2022-12-26T16:24:51.649Z,20.30
2022-12-26T16:27:22.536Z,18.92
2022-12-26T16:29:56.060Z,24.67
2022-12-26T16:32:47.204Z,24.33
2022-12-26T16:35:22.343Z,26.70
2022-12-26T16:37:50.843Z,25.17
2022-12-26T16:40:23.762Z,27.42
2022-12-26T16:43:31.247Z,27.65
2022-12-26T16:46:02.755Z,26.45
2022-12-26T16:48:32.496Z,34.85
2022-12-26T16:51:06.435Z,37.70
2022-12-26T16:53:36.376Z,37.20
2022-12-26T16:56:33.218Z,38.47
2022-12-26T16:59:17.096Z,38.92
2022-12-26T17:01:56.009Z,28.48
2022-12-26T17:04:25.788Z,30.02
2022-12-26T17:07:02.774Z,29.38
2022-12-26T17:09:41.629Z,28.95
2022-12-26T17:12:20.415Z,33.60
2022-12-26T17:14:49.907Z,32.08
2022-12-26T17:19:54.197Z,27.65
2022-12-26T17:22:27.902Z,31.83
2022-12-26T17:25:17.380Z,33.15
2022-12-26T17:27:45.628Z,30.08
2022-12-26T17:30:30.649Z,37.00
2022-12-26T17:33:11.005Z,32.75
2022-12-26T17:36:33.008Z,36.03
2022-12-26T17:38:28.138Z,37.70
2022-12-26T17:40:58.455Z,38.45
2022-12-26T17:43:31.449Z,33.42
2022-12-26T17:45:58.554Z,34.75
2022-12-26T17:48:25.687Z,41.90
2022-12-26T17:51:00.270Z,38.63
2022-12-26T17:53:33.285Z,40.13
2022-12-26T17:56:22.782Z,37.20
2022-12-26T17:58:50.533Z,35.72
2022-12-26T18:01:21.530Z,37.00
2022-12-26T18:03:50.086Z,40.15
2022-12-26T18:06:18.000Z,40.53
2022-12-26T18:08:45.242Z,42.22
2022-12-26T18:11:14.242Z,38.78
2022-12-26T18:13:42.185Z,42.00
2022-12-26T18:16:15.515Z,35.38
2022-12-26T18:18:47.391Z,42.30
2022-12-26T18:21:15.910Z,39.92
2022-12-26T18:23:43.556Z,98.47
2022-12-26T18:26:24.880Z,69.50
2022-12-26T18:28:52.233Z,42.50
2022-12-26T18:31:20.719Z,41.97
2022-12-26T18:33:47.809Z,41.65
2022-12-26T18:36:16.461Z,45.58
2022-12-26T18:38:44.326Z,41.90
2022-12-26T18:41:16.558Z,42.78
2022-12-26T18:43:43.747Z,38.40
2022-12-26T18:46:30.150Z,41.20
2022-12-26T18:48:57.863Z,41.92
2022-12-26T18:51:26.042Z,41.22
2022-12-26T18:53:53.277Z,52.80
2022-12-26T18:56:22.573Z,69.57
2022-12-26T18:58:57.121Z,61.78
2022-12-26T19:01:25.200Z,72.00
2022-12-26T19:03:53.955Z,62.13
2022-12-26T19:06:27.331Z,60.25
2022-12-26T19:08:54.868Z,47.05
2022-12-26T19:11:22.041Z,42.85
2022-12-26T19:13:49.111Z,43.75
2022-12-26T19:16:16.668Z,43.63
2022-12-26T19:18:43.592Z,44.08
2022-12-26T19:21:12.789Z,41.60
2022-12-26T19:23:40.336Z,41.65
2022-12-26T19:26:16.588Z,42.53
2022-12-26T19:28:43.844Z,41.95
2022-12-26T19:31:13.420Z,42.22
2022-12-26T19:33:40.920Z,46.42
2022-12-26T19:36:08.577Z,44.95
2022-12-26T19:38:35.794Z,55.10
2022-12-26T19:41:09.228Z,55.97
2022-12-26T19:43:37.207Z,44.67
2022-12-26T19:46:07.198Z,51.15
2022-12-26T19:48:35.465Z,48.58
2022-12-26T19:51:07.909Z,49.70
2022-12-26T19:53:36.387Z,52.65
2022-12-26T19:56:10.940Z,46.45
2022-12-26T19:58:38.157Z,50.70
2022-12-26T20:01:10.685Z,47.50
2022-12-26T20:03:37.904Z,56.75
2022-12-26T20:06:16.140Z,53.90
2022-12-26T20:08:44.564Z,60.30
2022-12-26T20:11:20.520Z,48.00
2022-12-26T20:13:48.848Z,58.05
2022-12-26T20:16:45.925Z,93.38
2022-12-26T20:19:05.880Z,61.08
2022-12-26T20:21:33.216Z,52.55
2022-12-26T20:24:01.875Z,51.35
2022-12-26T20:29:14.390Z,54.95
2022-12-26T20:31:42.733Z,54.40
2022-12-26T20:34:11.420Z,54.10
2022-12-26T20:36:38.977Z,56.78
2022-12-26T20:39:10.462Z,58.55
2022-12-26T20:41:37.791Z,59.42
2022-12-26T20:44:04.880Z,60.08
2022-12-26T20:46:33.426Z,55.15
2022-12-26T20:49:05.323Z,68.45
2022-12-26T20:51:37.962Z,66.35
2022-12-26T20:54:07.391Z,73.90
2022-12-26T20:56:36.206Z,64.07
2022-12-26T20:59:03.954Z,69.68
2022-12-26T21:01:31.441Z,72.15
2022-12-26T21:03:58.734Z,63.15
2022-12-26T21:06:31.923Z,76.68
2022-12-26T21:08:59.590Z,66.55
2022-12-26T21:11:29.353Z,73.35
2022-12-26T21:14:00.397Z,74.13
2022-12-26T21:16:38.043Z,77.13
2022-12-26T21:19:12.315Z,81.22
2022-12-26T21:21:44.402Z,83.45
2022-12-26T21:24:16.201Z,79.82
2022-12-26T21:26:44.742Z,83.72
2022-12-26T21:29:15.970Z,80.50
2022-12-26T21:31:43.246Z,80.10
2022-12-26T21:34:12.776Z,100.00
2022-12-26T21:36:40.770Z,82.57
2022-12-26T21:39:10.235Z,80.82
2022-12-26T21:41:37.862Z,81.97
2022-12-26T21:44:05.057Z,84.43
2022-12-26T21:46:32.271Z,79.60
2022-12-26T21:49:00.769Z,81.57
2022-12-26T21:51:28.918Z,87.20
2022-12-26T21:54:15.768Z,87.47
2022-12-26T21:56:42.908Z,78.97
2022-12-26T21:59:28.471Z,81.20
2022-12-26T22:01:55.622Z,82.85
2022-12-26T22:04:23.792Z,84.22
2022-12-26T22:06:51.656Z,89.57
2022-12-26T22:09:18.966Z,93.75
2022-12-26T22:12:05.334Z,81.15
2022-12-26T22:14:32.268Z,81.38
2022-12-26T22:16:59.488Z,79.88
2022-12-26T22:19:26.439Z,78.47
2022-12-26T22:21:54.650Z,76.22
2022-12-26T22:24:22.209Z,83.00
2022-12-26T22:26:49.577Z,81.57
2022-12-26T22:29:17.096Z,78.28
2022-12-26T22:32:03.980Z,76.38
2022-12-26T22:34:30.971Z,78.65
2022-12-26T22:36:58.248Z,79.85
2022-12-26T22:39:25.506Z,79.45
2022-12-26T22:41:55.203Z,72.20
2022-12-26T22:44:28.781Z,76.82
2022-12-26T22:46:57.840Z,83.57
2022-12-26T22:49:24.794Z,84.07
2022-12-26T22:51:51.749Z,82.43
2022-12-26T22:54:18.700Z,73.10
2022-12-26T22:56:45.740Z,78.38
2022-12-26T22:59:22.565Z,77.90
2022-12-26T23:01:59.956Z,82.90
2022-12-26T23:04:30.638Z,82.32
2022-12-26T23:06:58.862Z,80.03
2022-12-26T23:09:26.135Z,83.65
2022-12-26T23:12:12.277Z,77.50
2022-12-26T23:14:39.552Z,77.57
2022-12-26T23:17:12.091Z,85.72
2022-12-26T23:20:10.421Z,76.60
2022-12-26T23:22:37.679Z,83.10
2022-12-26T23:25:04.881Z,82.50
2022-12-26T23:27:50.339Z,82.05
2022-12-26T23:30:20.146Z,84.63
2022-12-26T23:32:51.987Z,81.35
2022-12-26T23:35:20.439Z,77.32
2022-12-26T23:37:47.350Z,80.30
2022-12-26T23:40:16.039Z,85.43
2022-12-26T23:42:43.307Z,77.85
2022-12-26T23:45:12.367Z,77.72
2022-12-26T23:47:41.114Z,74.18
2022-12-26T23:50:10.365Z,68.50
2022-12-26T23:52:37.693Z,70.00
2022-12-26T23:55:05.525Z,66.70
2022-12-26T23:57:32.660Z,65.03
2022-12-26T23:59:59.567Z,70.13
